createdAt,value
2023-04-27T00:01:06.362Z,11.95
2023-04-27T00:03:33.073Z,11.91
2023-04-27T00:05:59.974Z,11.77
2023-04-27T00:08:26.742Z,11.84
2023-04-27T00:10:53.218Z,11.84
2023-04-27T00:13:19.720Z,11.84
2023-04-27T00:15:46.284Z,11.82
2023-04-27T00:18:12.792Z,11.87
2023-04-27T00:20:40.109Z,11.81
2023-04-27T00:23:07.152Z,11.74
2023-04-27T00:25:33.679Z,11.79
2023-04-27T00:28:00.245Z,11.73
2023-04-27T00:30:26.723Z,11.71
2023-04-27T00:32:53.243Z,11.59
2023-04-27T00:35:20.125Z,11.64
2023-04-27T00:37:46.674Z,11.51
2023-04-27T00:40:13.309Z,11.59
2023-04-27T00:42:39.784Z,11.65
2023-04-27T00:45:06.955Z,11.68
2023-04-27T00:47:33.531Z,11.59
2023-04-27T00:50:00.832Z,11.63
2023-04-27T00:52:27.282Z,11.65
2023-04-27T00:54:53.752Z,11.66
2023-04-27T00:57:20.606Z,11.64
2023-04-27T00:59:47.399Z,11.64
2023-04-27T01:02:14.118Z,11.71
2023-04-27T01:04:41.445Z,11.77
2023-04-27T01:07:08.139Z,11.78
2023-04-27T01:09:34.845Z,11.78
2023-04-27T01:12:01.597Z,11.83
2023-04-27T01:14:28.059Z,11.79
2023-04-27T01:16:54.672Z,11.92
2023-04-27T01:19:21.159Z,11.92
2023-04-27T01:21:47.608Z,12.03
2023-04-27T01:24:14.128Z,11.95
2023-04-27T01:26:40.580Z,12.00
2023-04-27T01:29:07.096Z,11.85
2023-04-27T01:31:34.054Z,11.88
2023-04-27T01:34:00.603Z,11.89
2023-04-27T01:36:27.778Z,11.83
2023-04-27T01:38:54.264Z,11.83
2023-04-27T01:41:20.830Z,11.76
2023-04-27T01:43:47.325Z,11.71
2023-04-27T01:46:14.646Z,11.63
2023-04-27T01:48:42.032Z,11.62
2023-04-27T01:51:08.677Z,11.52
2023-04-27T01:53:35.220Z,11.52
2023-04-27T01:56:01.815Z,11.54
2023-04-27T01:58:28.598Z,11.47
2023-04-27T02:00:55.178Z,11.43
2023-04-27T02:03:22.140Z,11.42
2023-04-27T02:05:48.851Z,11.48
2023-04-27T02:08:15.381Z,11.64
2023-04-27T02:10:43.421Z,11.59
2023-04-27T02:13:09.971Z,11.61
2023-04-27T02:15:36.651Z,11.71
2023-04-27T02:18:03.893Z,11.63
2023-04-27T02:20:33.597Z,11.41
2023-04-27T02:23:01.009Z,11.57
2023-04-27T02:25:27.933Z,11.60
2023-04-27T02:27:55.120Z,11.51
2023-04-27T02:30:22.368Z,11.49
2023-04-27T02:32:49.687Z,11.54
2023-04-27T02:35:16.245Z,11.56
2023-04-27T02:37:42.756Z,11.48
2023-04-27T02:40:09.958Z,11.45
2023-04-27T02:42:38.907Z,11.37
2023-04-27T02:45:09.020Z,11.40
2023-04-27T02:47:35.706Z,11.45
2023-04-27T02:50:02.790Z,11.43
2023-04-27T02:52:29.274Z,11.41
2023-04-27T02:54:55.742Z,11.61
2023-04-27T02:57:22.239Z,11.39
2023-04-27T02:59:48.780Z,11.36
2023-04-27T03:02:15.674Z,11.28
2023-04-27T03:04:42.317Z,11.35
2023-04-27T03:07:09.009Z,11.28
2023-04-27T03:09:35.598Z,11.32
2023-04-27T03:12:02.609Z,10.99
2023-04-27T03:14:29.188Z,10.96
2023-04-27T03:16:57.329Z,11.19
2023-04-27T03:19:23.959Z,11.28
2023-04-27T03:21:50.737Z,11.27
2023-04-27T03:24:17.268Z,11.14
2023-04-27T03:26:43.780Z,11.15
2023-04-27T03:29:10.254Z,11.01
2023-04-27T03:31:36.921Z,11.05
2023-04-27T03:34:03.509Z,10.98
2023-04-27T03:36:30.005Z,11.07
2023-04-27T03:38:56.566Z,11.15
2023-04-27T03:41:23.038Z,11.11
2023-04-27T03:43:50.855Z,11.19
2023-04-27T03:46:17.403Z,11.27
2023-04-27T03:48:43.985Z,11.07
2023-04-27T03:51:10.500Z,11.15
2023-04-27T03:53:36.981Z,11.11
2023-04-27T03:56:03.750Z,11.12
2023-04-27T03:58:30.238Z,10.96
2023-04-27T04:00:57.297Z,10.99
2023-04-27T04:03:23.970Z,10.94
2023-04-27T04:05:50.615Z,11.14
2023-04-27T04:08:17.135Z,11.20
2023-04-27T04:10:43.635Z,11.11
2023-04-27T04:13:10.247Z,11.12
2023-04-27T04:15:36.703Z,11.17
2023-04-27T04:18:03.392Z,11.09
2023-04-27T04:20:29.911Z,11.16
2023-04-27T04:22:56.332Z,11.08
2023-04-27T04:25:22.864Z,10.93
2023-04-27T04:27:49.418Z,10.92
2023-04-27T04:30:16.549Z,10.73
2023-04-27T04:32:45.013Z,10.88
2023-04-27T04:35:11.926Z,10.88
2023-04-27T04:37:38.698Z,10.93
2023-04-27T04:40:09.880Z,10.86
2023-04-27T04:42:37.692Z,10.83
2023-04-27T04:45:04.766Z,10.84
2023-04-27T04:47:32.349Z,10.81
2023-04-27T04:49:59.040Z,10.79
2023-04-27T04:52:25.622Z,10.76
2023-04-27T04:54:53.220Z,10.79
2023-04-27T04:57:19.902Z,10.74
2023-04-27T04:59:46.387Z,10.90
2023-04-27T05:02:12.886Z,10.92
2023-04-27T05:04:39.418Z,11.00
2023-04-27T05:07:06.840Z,10.93
2023-04-27T05:09:33.378Z,10.78
2023-04-27T05:12:02.014Z,10.93
2023-04-27T05:14:28.574Z,10.94
2023-04-27T05:16:55.140Z,10.98
2023-04-27T05:19:21.751Z,10.90
2023-04-27T05:21:48.528Z,10.89
2023-04-27T05:24:15.057Z,11.20
2023-04-27T05:26:42.828Z,11.18
2023-04-27T05:29:09.406Z,11.26
2023-04-27T05:31:36.295Z,11.28
2023-04-27T05:34:02.860Z,11.43
2023-04-27T05:36:29.358Z,11.32
2023-04-27T05:38:56.231Z,11.30
2023-04-27T05:41:23.775Z,11.23
2023-04-27T05:43:50.272Z,11.31
2023-04-27T05:46:16.966Z,11.45
2023-04-27T05:48:43.544Z,11.33
2023-04-27T05:51:10.140Z,11.51
2023-04-27T05:53:36.670Z,11.47
2023-04-27T05:56:04.603Z,11.40
2023-04-27T05:58:31.295Z,11.53
2023-04-27T06:00:57.832Z,11.72
2023-04-27T06:03:25.056Z,12.06
2023-04-27T06:05:59.663Z,12.25
2023-04-27T06:08:27.049Z,12.11
2023-04-27T06:10:54.092Z,12.37
2023-04-27T06:13:21.124Z,12.45
2023-04-27T06:15:48.016Z,12.61
2023-04-27T06:18:14.588Z,12.69
2023-04-27T06:20:42.009Z,12.68
2023-04-27T06:23:08.848Z,12.69
2023-04-27T06:25:37.508Z,12.75
2023-04-27T06:28:04.257Z,12.92
2023-04-27T06:30:30.893Z,12.88
2023-04-27T06:32:57.335Z,13.24
2023-04-27T06:35:23.795Z,13.24
2023-04-27T06:37:50.290Z,13.37
2023-04-27T06:40:16.943Z,13.38
2023-04-27T06:42:43.485Z,13.42
2023-04-27T06:45:10.683Z,13.46
2023-04-27T06:47:37.159Z,13.43
2023-04-27T06:50:04.282Z,13.51
2023-04-27T06:52:33.182Z,13.63
2023-04-27T06:54:59.762Z,13.84
2023-04-27T06:57:26.428Z,13.77
2023-04-27T06:59:52.883Z,13.92
2023-04-27T07:02:19.572Z,13.80
2023-04-27T07:04:46.612Z,13.92
2023-04-27T07:07:13.381Z,14.15
2023-04-27T07:09:39.810Z,14.52
2023-04-27T07:12:06.658Z,14.72
2023-04-27T07:14:33.913Z,14.89
2023-04-27T07:17:00.471Z,14.77
2023-04-27T07:19:26.995Z,14.94
2023-04-27T07:21:53.744Z,14.89
2023-04-27T07:24:20.640Z,15.15
2023-04-27T07:26:48.096Z,15.16
2023-04-27T07:29:26.613Z,14.65
2023-04-27T07:31:54.576Z,14.87
2023-04-27T07:34:21.229Z,14.74
2023-04-27T07:36:47.663Z,15.05
2023-04-27T07:39:15.024Z,15.11
2023-04-27T07:41:42.109Z,15.03
2023-04-27T07:44:08.618Z,15.05
2023-04-27T07:46:35.154Z,15.23
2023-04-27T07:49:02.425Z,16.43
2023-04-27T07:51:28.985Z,16.66
2023-04-27T07:53:56.338Z,16.91
2023-04-27T07:56:22.822Z,15.81
2023-04-27T07:58:49.312Z,16.13
2023-04-27T08:01:15.844Z,16.70
2023-04-27T08:03:42.414Z,16.96
2023-04-27T08:06:09.618Z,17.09
2023-04-27T08:08:36.346Z,17.00
2023-04-27T08:11:03.110Z,17.27
2023-04-27T08:13:29.702Z,17.16
2023-04-27T08:15:59.306Z,18.18
2023-04-27T08:18:26.348Z,18.71
2023-04-27T08:20:53.340Z,18.65
2023-04-27T08:23:20.102Z,19.68
2023-04-27T08:25:47.152Z,19.97
2023-04-27T08:28:15.125Z,20.67
2023-04-27T08:30:42.856Z,19.80
2023-04-27T08:33:09.530Z,20.27
2023-04-27T08:35:36.107Z,19.92
2023-04-27T08:38:02.714Z,21.02
2023-04-27T08:40:29.533Z,21.71
2023-04-27T08:42:58.298Z,21.79
2023-04-27T08:45:26.377Z,21.18
2023-04-27T08:47:53.957Z,20.96
2023-04-27T08:50:20.496Z,22.12
2023-04-27T08:52:48.032Z,22.66
2023-04-27T08:55:16.737Z,23.60
2023-04-27T08:57:54.146Z,23.38
2023-04-27T09:00:21.041Z,23.80
2023-04-27T09:02:48.752Z,24.05
2023-04-27T09:05:24.790Z,23.86
2023-04-27T09:07:59.184Z,24.03
2023-04-27T09:10:25.768Z,23.84
2023-04-27T09:13:00.970Z,24.02
2023-04-27T09:15:28.772Z,24.31
2023-04-27T09:17:57.071Z,24.08
2023-04-27T09:20:24.368Z,24.62
2023-04-27T09:22:58.355Z,24.48
2023-04-27T09:25:31.377Z,24.38
2023-04-27T09:28:00.033Z,24.53
2023-04-27T09:30:28.023Z,24.65
2023-04-27T09:33:01.619Z,24.70
2023-04-27T09:35:31.424Z,24.84
2023-04-27T09:37:58.554Z,25.09
2023-04-27T09:40:28.198Z,25.26
2023-04-27T09:42:56.906Z,25.09
2023-04-27T09:45:25.329Z,24.23
2023-04-27T09:47:52.869Z,24.66
2023-04-27T09:50:19.889Z,24.63
2023-04-27T09:52:47.098Z,25.07
2023-04-27T09:55:19.966Z,24.77
2023-04-27T09:57:55.730Z,25.07
2023-04-27T10:00:39.471Z,25.14
2023-04-27T10:03:25.531Z,25.57
2023-04-27T10:06:29.503Z,26.60
2023-04-27T10:08:57.131Z,27.45
2023-04-27T10:11:38.562Z,26.93
2023-04-27T10:14:09.552Z,28.02
2023-04-27T10:16:57.175Z,27.56
2023-04-27T10:19:24.990Z,27.07
2023-04-27T10:22:07.982Z,27.15
2023-04-27T10:24:36.185Z,26.16
2023-04-27T10:27:05.853Z,26.33
2023-04-27T10:29:36.982Z,27.52
2023-04-27T10:32:08.948Z,28.44
2023-04-27T10:34:39.430Z,29.40
2023-04-27T10:37:11.017Z,29.15
2023-04-27T10:39:48.610Z,29.49
2023-04-27T10:42:28.415Z,29.50
2023-04-27T10:44:57.774Z,29.38
2023-04-27T10:47:24.839Z,28.97
2023-04-27T10:49:54.365Z,28.85
2023-04-27T10:52:21.027Z,29.02
2023-04-27T10:54:47.726Z,28.48
2023-04-27T10:57:14.312Z,29.30
2023-04-27T10:59:51.833Z,29.79
2023-04-27T11:02:26.553Z,29.32
2023-04-27T11:04:53.192Z,29.71
2023-04-27T11:07:27.725Z,29.26
2023-04-27T11:09:55.335Z,28.74
2023-04-27T11:12:22.351Z,28.27
2023-04-27T11:14:48.960Z,27.82
2023-04-27T11:17:15.473Z,28.19
2023-04-27T11:19:47.035Z,28.16
2023-04-27T11:22:16.896Z,28.90
2023-04-27T11:24:50.430Z,29.28
2023-04-27T11:27:17.999Z,29.94
2023-04-27T11:29:44.904Z,29.70
2023-04-27T11:32:21.779Z,29.70
2023-04-27T11:34:53.773Z,29.67
2023-04-27T11:37:24.841Z,29.99
2023-04-27T11:39:52.432Z,30.56
2023-04-27T11:42:24.160Z,30.24
2023-04-27T11:45:01.085Z,29.15
2023-04-27T11:47:30.110Z,30.08
2023-04-27T11:50:00.610Z,30.45
2023-04-27T11:52:34.279Z,29.98
2023-04-27T11:55:02.131Z,29.76
2023-04-27T11:57:31.314Z,29.92
2023-04-27T12:00:00.426Z,29.99
2023-04-27T12:02:28.638Z,29.99
2023-04-27T12:04:55.624Z,29.82
2023-04-27T12:07:22.231Z,29.65
2023-04-27T12:09:48.792Z,29.50
2023-04-27T12:12:18.320Z,29.56
2023-04-27T12:14:46.001Z,29.32
2023-04-27T12:17:12.794Z,29.04
2023-04-27T12:19:39.408Z,29.30
2023-04-27T12:22:06.153Z,28.92
2023-04-27T12:24:32.709Z,28.80
2023-04-27T12:26:59.709Z,29.28
2023-04-27T12:29:26.177Z,29.73
2023-04-27T12:31:53.290Z,29.80
2023-04-27T12:34:20.187Z,29.37
2023-04-27T12:36:47.136Z,27.94
2023-04-27T12:39:16.095Z,27.73
2023-04-27T12:41:50.396Z,27.54
2023-04-27T12:44:18.941Z,26.90
2023-04-27T12:46:48.235Z,27.37
2023-04-27T12:49:15.571Z,28.10
2023-04-27T12:51:42.407Z,28.23
2023-04-27T12:54:10.613Z,27.85
2023-04-27T12:56:37.154Z,27.76
2023-04-27T12:59:04.057Z,27.74
2023-04-27T13:01:31.501Z,27.99
2023-04-27T13:04:05.961Z,27.68
2023-04-27T13:06:32.759Z,27.45
2023-04-27T13:08:59.760Z,27.71
2023-04-27T13:11:27.141Z,28.01
2023-04-27T13:13:54.902Z,27.65
2023-04-27T13:16:22.771Z,27.56
2023-04-27T13:18:51.991Z,27.90
2023-04-27T13:21:18.949Z,28.10
2023-04-27T13:23:45.424Z,27.98
2023-04-27T13:26:11.936Z,28.14
2023-04-27T13:28:38.441Z,28.49
2023-04-27T13:31:06.027Z,28.78
2023-04-27T13:33:34.490Z,28.01
2023-04-27T13:36:02.459Z,28.51
2023-04-27T13:38:29.050Z,27.86
2023-04-27T13:40:55.510Z,28.41
2023-04-27T13:43:22.272Z,28.61
2023-04-27T13:45:50.777Z,27.35
2023-04-27T13:48:17.342Z,27.28
2023-04-27T13:50:43.888Z,27.19
2023-04-27T13:53:10.412Z,26.94
2023-04-27T13:55:37.217Z,26.29
2023-04-27T13:58:04.005Z,26.39
2023-04-27T14:00:34.714Z,26.99
2023-04-27T14:03:01.675Z,27.01
2023-04-27T14:05:28.742Z,26.69
2023-04-27T14:07:55.366Z,26.82
2023-04-27T14:10:22.666Z,27.26
2023-04-27T14:12:49.281Z,27.16
2023-04-27T14:15:15.932Z,27.15
2023-04-27T14:17:42.660Z,26.72
2023-04-27T14:20:09.245Z,26.33
2023-04-27T14:22:36.971Z,25.83
2023-04-27T14:25:03.607Z,25.72
2023-04-27T14:27:30.102Z,26.11
2023-04-27T14:29:56.620Z,26.20
2023-04-27T14:32:23.461Z,25.98
2023-04-27T14:34:50.105Z,25.79
2023-04-27T14:37:16.708Z,25.43
2023-04-27T14:39:45.259Z,25.95
2023-04-27T14:42:12.104Z,26.14
2023-04-27T14:44:38.657Z,26.29
2023-04-27T14:47:06.403Z,26.30
2023-04-27T14:49:32.975Z,26.10
2023-04-27T14:52:03.178Z,26.05
2023-04-27T14:54:29.665Z,25.93
2023-04-27T14:56:58.160Z,25.89
2023-04-27T14:59:25.395Z,25.67
2023-04-27T15:01:52.250Z,25.44
2023-04-27T15:04:20.104Z,25.23
2023-04-27T15:06:47.015Z,25.26
2023-04-27T15:09:13.672Z,25.27
2023-04-27T15:11:40.492Z,25.22
2023-04-27T15:14:08.479Z,25.14
2023-04-27T15:16:35.048Z,24.82
2023-04-27T15:19:01.618Z,24.48
2023-04-27T15:21:28.119Z,24.35
2023-04-27T15:23:54.620Z,24.00
2023-04-27T15:26:21.392Z,24.13
2023-04-27T15:28:47.980Z,24.11
2023-04-27T15:31:14.510Z,23.99
2023-04-27T15:33:41.182Z,23.75
2023-04-27T15:36:07.843Z,23.65
2023-04-27T15:38:34.340Z,23.73
2023-04-27T15:41:00.950Z,23.71
2023-04-27T15:43:27.423Z,23.72
2023-04-27T15:45:54.008Z,23.56
2023-04-27T15:48:20.650Z,23.31
2023-04-27T15:50:47.160Z,23.17
2023-04-27T15:53:13.679Z,23.28
2023-04-27T15:55:40.649Z,23.31
2023-04-27T15:58:07.101Z,23.34
2023-04-27T16:00:35.099Z,23.32
2023-04-27T16:03:01.828Z,23.16
2023-04-27T16:05:28.586Z,23.08
2023-04-27T16:07:55.056Z,22.82
2023-04-27T16:10:21.912Z,22.67
2023-04-27T16:12:48.399Z,22.54
2023-04-27T16:15:15.015Z,22.63
2023-04-27T16:17:41.728Z,22.48
2023-04-27T16:20:09.423Z,22.33
2023-04-27T16:22:37.012Z,22.14
2023-04-27T16:25:06.562Z,22.16
2023-04-27T16:27:33.519Z,22.05
2023-04-27T16:30:00.083Z,22.23
2023-04-27T16:32:26.937Z,21.91
2023-04-27T16:34:53.797Z,21.81
2023-04-27T16:37:20.431Z,21.89
2023-04-27T16:39:46.971Z,21.85
2023-04-27T16:42:18.571Z,21.82
2023-04-27T16:44:45.208Z,21.86
2023-04-27T16:47:12.064Z,21.81
2023-04-27T16:49:38.651Z,21.97
2023-04-27T16:52:05.404Z,22.07
2023-04-27T16:54:31.944Z,22.02
2023-04-27T16:56:58.503Z,21.85
2023-04-27T16:59:25.076Z,21.81
2023-04-27T17:01:52.117Z,21.79
2023-04-27T17:04:18.782Z,21.88
2023-04-27T17:06:48.500Z,21.89
2023-04-27T17:09:15.309Z,21.91
2023-04-27T17:11:42.214Z,21.79
2023-04-27T17:14:08.798Z,21.77
2023-04-27T17:16:35.300Z,21.58
2023-04-27T17:19:02.207Z,21.38
2023-04-27T17:21:28.801Z,21.27
2023-04-27T17:23:55.634Z,21.26
2023-04-27T17:26:22.700Z,21.29
2023-04-27T17:28:49.547Z,21.14
2023-04-27T17:31:17.517Z,21.18
2023-04-27T17:33:44.107Z,21.07
2023-04-27T17:36:11.273Z,21.00
2023-04-27T17:38:37.844Z,20.94
2023-04-27T17:41:04.398Z,20.85
2023-04-27T17:43:30.884Z,20.71
2023-04-27T17:45:57.376Z,20.76
2023-04-27T17:48:24.479Z,20.64
2023-04-27T17:50:51.153Z,20.57
2023-04-27T17:53:17.687Z,20.52
2023-04-27T17:55:45.537Z,20.52
2023-04-27T17:58:12.245Z,20.46
2023-04-27T18:00:39.124Z,20.42
2023-04-27T18:03:05.832Z,20.38
2023-04-27T18:05:32.653Z,20.35
2023-04-27T18:07:59.154Z,20.29
2023-04-27T18:10:25.699Z,20.25
2023-04-27T18:12:52.132Z,20.14
2023-04-27T18:15:19.609Z,20.13
2023-04-27T18:17:46.160Z,20.41
2023-04-27T18:20:12.796Z,20.35
2023-04-27T18:22:40.176Z,20.18
2023-04-27T18:25:10.442Z,20.04
2023-04-27T18:27:39.446Z,20.03
2023-04-27T18:30:07.777Z,20.05
2023-04-27T18:32:34.823Z,20.01
2023-04-27T18:35:02.324Z,19.98
2023-04-27T18:37:29.227Z,19.84
2023-04-27T18:39:55.707Z,19.80
2023-04-27T18:42:23.611Z,19.72
2023-04-27T18:44:54.752Z,19.70
2023-04-27T18:47:21.444Z,19.63
2023-04-27T18:49:48.251Z,19.54
2023-04-27T18:52:14.812Z,19.50
2023-04-27T18:54:42.153Z,19.18
2023-04-27T18:57:08.684Z,19.29
2023-04-27T18:59:37.655Z,19.24
2023-04-27T19:02:04.146Z,19.18
2023-04-27T19:04:30.778Z,19.02
2023-04-27T19:06:57.273Z,18.98
2023-04-27T19:09:23.841Z,18.94
2023-04-27T19:12:00.044Z,18.87
2023-04-27T19:14:30.811Z,18.95
2023-04-27T19:16:57.340Z,18.85
2023-04-27T19:19:26.435Z,18.63
2023-04-27T19:21:53.343Z,18.66
2023-04-27T19:24:19.864Z,18.77
2023-04-27T19:26:48.387Z,18.64
2023-04-27T19:29:15.383Z,18.57
2023-04-27T19:31:42.595Z,18.55
2023-04-27T19:34:09.256Z,18.60
2023-04-27T19:36:35.814Z,18.47
2023-04-27T19:39:02.276Z,18.41
2023-04-27T19:41:28.828Z,18.36
2023-04-27T19:43:55.496Z,18.19
2023-04-27T19:46:22.062Z,18.13
2023-04-27T19:48:49.706Z,18.16
2023-04-27T19:51:16.537Z,18.02
2023-04-27T19:53:43.023Z,18.01
2023-04-27T19:56:09.540Z,17.89
2023-04-27T19:58:37.119Z,17.77
2023-04-27T20:01:04.086Z,17.66
2023-04-27T20:03:30.881Z,17.64
2023-04-27T20:05:57.723Z,17.59
2023-04-27T20:08:24.980Z,17.68
2023-04-27T20:10:51.548Z,17.74
2023-04-27T20:13:18.074Z,17.48
2023-04-27T20:15:44.682Z,17.68
2023-04-27T20:18:11.344Z,17.76
2023-04-27T20:20:37.947Z,17.89
2023-04-27T20:23:04.455Z,17.93
2023-04-27T20:25:31.011Z,17.84
2023-04-27T20:27:57.465Z,17.71
2023-04-27T20:30:24.054Z,17.61
2023-04-27T20:32:50.670Z,17.54
2023-04-27T20:35:17.496Z,17.63
2023-04-27T20:37:44.249Z,17.48
2023-04-27T20:40:14.445Z,17.43
2023-04-27T20:42:42.531Z,17.27
2023-04-27T20:45:11.409Z,17.19
2023-04-27T20:47:38.235Z,17.22
2023-04-27T20:50:06.306Z,17.26
2023-04-27T20:52:34.575Z,17.09
2023-04-27T20:55:01.587Z,17.03
2023-04-27T20:57:28.097Z,16.98
2023-04-27T20:59:55.150Z,17.03
2023-04-27T21:02:21.657Z,17.07
2023-04-27T21:04:48.247Z,17.08
2023-04-27T21:07:14.855Z,16.97
2023-04-27T21:09:41.635Z,16.98
2023-04-27T21:12:08.747Z,16.96
2023-04-27T21:14:35.295Z,16.87
2023-04-27T21:17:01.892Z,16.80
2023-04-27T21:19:28.385Z,16.82
2023-04-27T21:21:54.848Z,16.77
2023-04-27T21:24:21.532Z,16.72
2023-04-27T21:26:48.193Z,16.70
2023-04-27T21:29:14.667Z,16.53
2023-04-27T21:31:41.280Z,16.61
2023-04-27T21:34:08.198Z,16.59
2023-04-27T21:36:34.837Z,16.50
2023-04-27T21:39:01.330Z,16.46
2023-04-27T21:41:27.808Z,16.58
2023-04-27T21:43:54.365Z,16.60
2023-04-27T21:46:23.019Z,16.48
2023-04-27T21:48:49.580Z,16.26
2023-04-27T21:51:16.088Z,16.32
2023-04-27T21:53:42.558Z,16.34
2023-04-27T21:56:09.000Z,16.23
2023-04-27T21:58:35.438Z,16.13
2023-04-27T22:01:02.325Z,16.26
2023-04-27T22:03:29.010Z,16.12
2023-04-27T22:05:57.551Z,15.92
2023-04-27T22:08:24.149Z,16.12
2023-04-27T22:10:50.895Z,16.15
2023-04-27T22:13:19.402Z,16.04
2023-04-27T22:15:46.555Z,15.94
2023-04-27T22:18:14.390Z,16.00
2023-04-27T22:20:41.556Z,16.02
2023-04-27T22:23:09.234Z,15.89
2023-04-27T22:25:35.763Z,16.02
2023-04-27T22:28:02.283Z,16.01
2023-04-27T22:30:29.459Z,15.83
2023-04-27T22:32:56.818Z,15.77
2023-04-27T22:35:27.044Z,15.70
2023-04-27T22:37:58.942Z,15.69
2023-04-27T22:40:25.665Z,15.47
2023-04-27T22:42:53.181Z,15.54
2023-04-27T22:45:19.682Z,15.56
2023-04-27T22:47:46.329Z,15.41
2023-04-27T22:50:13.557Z,15.45
2023-04-27T22:52:42.260Z,15.48
2023-04-27T22:55:10.443Z,15.51
2023-04-27T22:57:37.330Z,15.58
2023-04-27T23:00:11.837Z,15.57
2023-04-27T23:02:42.831Z,15.40
2023-04-27T23:05:11.028Z,15.49
2023-04-27T23:07:37.872Z,15.63
2023-04-27T23:10:05.840Z,15.48
2023-04-27T23:12:32.480Z,15.57
2023-04-27T23:14:59.326Z,15.43
2023-04-27T23:17:30.592Z,15.58
2023-04-27T23:20:01.934Z,15.40
2023-04-27T23:22:29.457Z,15.30
2023-04-27T23:24:56.260Z,15.35
2023-04-27T23:27:24.674Z,15.26
2023-04-27T23:29:51.336Z,15.22
2023-04-27T23:32:17.908Z,15.34
2023-04-27T23:34:44.475Z,15.29
2023-04-27T23:37:11.200Z,15.28
2023-04-27T23:39:38.290Z,15.23
2023-04-27T23:42:04.834Z,15.09
2023-04-27T23:44:31.378Z,15.33
2023-04-27T23:46:58.398Z,15.26
2023-04-27T23:49:24.851Z,15.22
2023-04-27T23:51:52.430Z,15.20
2023-04-27T23:54:19.085Z,15.21
2023-04-27T23:56:45.567Z,15.23
2023-04-27T23:59:12.101Z,15.22
